Sucre, Bolivia

12:41 PM BOT on March 28, 2015 (GMT -0400)
Juana Azurduy De Padilla | | Change Station
CLOSE
Current Station
Airport
Location: Sucre,
Elevation: 9528 ft
Nearby Weather Stations

Elev 9528 ft 19.01 °S, 65.29 °W | Updated 41 minutes ago

Mostly Cloudy
Mostly Cloudy
59 °F
Feels Like 59 °F
N
8
Wind Variable Wind from NE

Today
High -- | Low -- °F
--% Chance of Precip.
Yesterday
High -- | Low -- °F
Precip. -- in
6:26 AM 6:25 PM
Waxing Gibbous, 63% visible
Pressure 30.48 in
Visibility 6.2 miles
Clouds Few 1300 ft
Mostly Cloudy 1700 ft
Dew Point 52 °F
Humidity 77%
Rainfall 0.00 in
Snow Depth Not available.
UV 9 out of 12
Pollen Not available.
Air Quality Not available.
Flu Activity Not available.
METAR SLSU 281600Z 05007KT 9999 FEW013 BKN017 15/11 Q1032

More Conditions Fewer Conditions

Pressure 30.48 in
Visibility 6.2 miles
Clouds Few 1300 ft
Mostly Cloudy 1700 ft
Dew Point 52 °F
Humidity 77%
Rainfall 0.00 in
Snow Depth Not available.
UV 9 out of 12
Pollen Not available.
Air Quality Not available.
Flu Activity Not available.
METAR SLSU 281600Z 05007KT 9999 FEW013 BKN017 15/11 Q1032

More Conditions Fewer Conditions

10-Day Weather Forecast

Almanac

Astronomy

Mar. 28, 2015 Rise Set
Actual Time
Civil Twilight
Nautical Twilight
Astronomical Twilight
Moon
Length of Visible Light
Length of Day
Tomorrow will be .
, % of the Moon is Illuminated

Today's Extremes

Country Highs Country Lows

Community

WunderPhotos

Upload Photos

1,809,028 photos uploaded!

WunderBlogs® & News

Nearby

Air Quality

  Air Quality AQ Index Pollutant
Not available.

Snow Depth

Station Depth Elevation

Earthquake Activity

City Distance Mag. Time & Date
Minimum magnitude displayed is 2.5.

Coastal Water Temperatures

Place Temperature

Stations

Nearby Weather Stations

Station Location Temp. Windchill Dew Point Humidity Wind Precip. Elev Updated Type